Terminal Aerodrome Forecast
Issued by NWS Huntsville, AL

Home | Current Version | Previous Version | Text Only | Print | Product List | Glossary On
Versions: 1 2 3 4 5 6 7 8 9 10 11 12 13 14 15 16 17 18 19 20 21 22 23 24 25 26 27 28 29 30 31
000
FTUS44 KHUN 301720
TAFHSV
TAF
KHSV 301720Z 3018/0118 VRB03KT P6SM SCT030
     FM010100 VRB02KT P6SM SCT250
      TEMPO 0110/0113 5SM BR
     FM011500 16004KT P6SM SCT250=

USA.gov is the U.S. government's official web portal to all federal, state and local government web resources and services.